LAN2453 SPJC-SPZO
Flight info
| Callsign | LAN2453 |
|---|---|
| Flight time | N/A |
| Altitude | 35000 |
| Route | JCL DCT LPA DCT AND DCT ZCO |
| Aircraft | A321/M-SDE3FGHIRWY/LB1 |
Departure
| Time | N/A |
|---|---|
| Airport | Jorge Chávez International Airport (SPJC) |
Arrival
| Time | 2026-05-03 20:54 |
|---|---|
| Airport | Alejandro Velasco Astete International Airport (SPZO) |
| Time | Latitude | Longitude | Altitude | Speed | Heading |
|---|---|---|---|---|---|
| 2026-05-03 20:15 | -12.87946 | -75.33797 | 35229 ft | 476 kts | 112° |
| 2026-05-03 20:15 | -12.90633 | -75.27586 | 35229 ft | 476 kts | 112° |
| 2026-05-03 20:16 | -12.93305 | -75.21377 | 35222 ft | 476 kts | 112° |
| 2026-05-03 20:16 | -12.95958 | -75.15197 | 35238 ft | 476 kts | 112° |
| 2026-05-03 20:17 | -12.98631 | -75.08980 | 35235 ft | 476 kts | 112° |
| 2026-05-03 20:17 | -13.01296 | -75.02764 | 35232 ft | 476 kts | 112° |
| 2026-05-03 20:18 | -13.03956 | -74.96555 | 35233 ft | 475 kts | 112° |
| 2026-05-03 20:18 | -13.06626 | -74.90354 | 35226 ft | 475 kts | 112° |
| 2026-05-03 20:19 | -13.09299 | -74.84144 | 35222 ft | 476 kts | 112° |
| 2026-05-03 20:19 | -13.11953 | -74.77952 | 35202 ft | 477 kts | 112° |
| 2026-05-03 20:20 | -13.14617 | -74.71711 | 35215 ft | 477 kts | 112° |
| 2026-05-03 20:20 | -13.17284 | -74.65478 | 35193 ft | 477 kts | 112° |
| 2026-05-03 20:21 | -13.19948 | -74.59238 | 35179 ft | 477 kts | 112° |
| 2026-05-03 20:21 | -13.22593 | -74.53036 | 35214 ft | 476 kts | 112° |
| 2026-05-03 20:22 | -13.25262 | -74.46795 | 35239 ft | 476 kts | 112° |
| 2026-05-03 20:22 | -13.27921 | -74.40562 | 35296 ft | 477 kts | 112° |
| 2026-05-03 20:23 | -13.30576 | -74.34325 | 35322 ft | 477 kts | 112° |
| 2026-05-03 20:23 | -13.33213 | -74.28123 | 35335 ft | 476 kts | 112° |
| 2026-05-03 20:24 | -13.35862 | -74.21879 | 35320 ft | 476 kts | 112° |
| 2026-05-03 20:24 | -13.37185 | -74.18766 | 35102 ft | 476 kts | 112° |
| 2026-05-03 20:24 | -13.38510 | -74.15647 | 35102 ft | 476 kts | 112° |
| 2026-05-03 20:25 | -13.41164 | -74.09405 | 35110 ft | 476 kts | 112° |
| 2026-05-03 20:25 | -13.43796 | -74.03200 | 35091 ft | 477 kts | 112° |
| 2026-05-03 20:26 | -13.46451 | -73.96951 | 35093 ft | 477 kts | 112° |
| 2026-05-03 20:26 | -13.49096 | -73.90698 | 35092 ft | 477 kts | 112° |
| 2026-05-03 20:27 | -13.51293 | -73.85498 | 35091 ft | 477 kts | 112° |
| 2026-05-03 20:27 | -13.53942 | -73.79248 | 35086 ft | 477 kts | 112° |
| 2026-05-03 20:28 | -13.56583 | -73.73002 | 35087 ft | 477 kts | 112° |
| 2026-05-03 20:28 | -13.59219 | -73.66754 | 35151 ft | 476 kts | 112° |
| 2026-05-03 20:29 | -13.61863 | -73.60496 | 35278 ft | 476 kts | 112° |
| 2026-05-03 20:29 | -13.64489 | -73.54285 | 35406 ft | 476 kts | 112° |
| 2026-05-03 20:30 | -13.67114 | -73.48034 | 35492 ft | 475 kts | 112° |
| 2026-05-03 20:30 | -13.68408 | -73.44917 | 35046 ft | 474 kts | 109° |
| 2026-05-03 20:30 | -13.69290 | -73.41671 | 34481 ft | 471 kts | 97° |
| 2026-05-03 20:30 | -13.69544 | -73.38323 | 33825 ft | 468 kts | 86° |
| 2026-05-03 20:31 | -13.69182 | -73.35010 | 33175 ft | 465 kts | 76° |
| 2026-05-03 20:31 | -13.68241 | -73.31838 | 32536 ft | 463 kts | 65° |
| 2026-05-03 20:31 | -13.66806 | -73.28879 | 31874 ft | 462 kts | 60° |
| 2026-05-03 20:31 | -13.65297 | -73.25996 | 31142 ft | 464 kts | 60° |
| 2026-05-03 20:32 | -13.63769 | -73.23072 | 30377 ft | 465 kts | 61° |
| 2026-05-03 20:32 | -13.62238 | -73.20136 | 29516 ft | 465 kts | 61° |
| 2026-05-03 20:32 | -13.60714 | -73.17202 | 28864 ft | 462 kts | 61° |
| 2026-05-03 20:32 | -13.59204 | -73.14293 | 28461 ft | 461 kts | 61° |
| 2026-05-03 20:33 | -13.57693 | -73.11387 | 27861 ft | 459 kts | 61° |
| 2026-05-03 20:33 | -13.56189 | -73.08502 | 27511 ft | 456 kts | 61° |
| 2026-05-03 20:33 | -13.54693 | -73.05634 | 27188 ft | 455 kts | 61° |
| 2026-05-03 20:33 | -13.53201 | -73.02771 | 26842 ft | 452 kts | 61° |
| 2026-05-03 20:34 | -13.51718 | -72.99928 | 26509 ft | 450 kts | 61° |
| 2026-05-03 20:34 | -13.50242 | -72.97101 | 26175 ft | 447 kts | 61° |
| 2026-05-03 20:34 | -13.48794 | -72.94321 | 25868 ft | 446 kts | 61° |
| 2026-05-03 20:34 | -13.47346 | -72.91538 | 25562 ft | 437 kts | 62° |
| 2026-05-03 20:35 | -13.46173 | -72.88697 | 25250 ft | 427 kts | 72° |
| 2026-05-03 20:35 | -13.45565 | -72.85752 | 25084 ft | 415 kts | 83° |
| 2026-05-03 20:35 | -13.45500 | -72.82845 | 25111 ft | 399 kts | 93° |
| 2026-05-03 20:35 | -13.45723 | -72.80056 | 25116 ft | 385 kts | 93° |
| 2026-05-03 20:36 | -13.45940 | -72.77354 | 25115 ft | 374 kts | 94° |
| 2026-05-03 20:36 | -13.46145 | -72.74734 | 25113 ft | 371 kts | 94° |
| 2026-05-03 20:36 | -13.46350 | -72.72091 | 25092 ft | 371 kts | 94° |
| 2026-05-03 20:36 | -13.46556 | -72.69456 | 25089 ft | 371 kts | 93° |
| 2026-05-03 20:37 | -13.46767 | -72.66813 | 25090 ft | 370 kts | 94° |
| 2026-05-03 20:37 | -13.46978 | -72.64176 | 25096 ft | 371 kts | 93° |
| 2026-05-03 20:37 | -13.47187 | -72.61528 | 25087 ft | 370 kts | 93° |
| 2026-05-03 20:37 | -13.47396 | -72.58887 | 25084 ft | 371 kts | 93° |
| 2026-05-03 20:38 | -13.47605 | -72.56242 | 25088 ft | 371 kts | 94° |
| 2026-05-03 20:38 | -13.47759 | -72.53595 | 25092 ft | 370 kts | 87° |
| 2026-05-03 20:38 | -13.47482 | -72.51015 | 25078 ft | 368 kts | 76° |
| 2026-05-03 20:38 | -13.46747 | -72.48491 | 25089 ft | 369 kts | 70° |
| 2026-05-03 20:39 | -13.45920 | -72.45997 | 25076 ft | 368 kts | 70° |
| 2026-05-03 20:39 | -13.45098 | -72.43503 | 25071 ft | 369 kts | 71° |
| 2026-05-03 20:39 | -13.44284 | -72.41003 | 25089 ft | 371 kts | 72° |
| 2026-05-03 20:39 | -13.43483 | -72.38427 | 25100 ft | 385 kts | 72° |
| 2026-05-03 20:40 | -13.42665 | -72.35774 | 25090 ft | 386 kts | 72° |
| 2026-05-03 20:40 | -13.41870 | -72.33194 | 25096 ft | 373 kts | 71° |
| 2026-05-03 20:40 | -13.41091 | -72.30662 | 25098 ft | 370 kts | 72° |
| 2026-05-03 20:40 | -13.40312 | -72.28144 | 25095 ft | 370 kts | 72° |
| 2026-05-03 20:41 | -13.39549 | -72.25626 | 25093 ft | 369 kts | 75° |
| 2026-05-03 20:41 | -13.39228 | -72.23021 | 24991 ft | 368 kts | 87° |
| 2026-05-03 20:41 | -13.39178 | -72.20435 | 24612 ft | 366 kts | 88° |
| 2026-05-03 20:41 | -13.39154 | -72.17827 | 24359 ft | 364 kts | 89° |
| 2026-05-03 20:42 | -13.39128 | -72.15235 | 24031 ft | 362 kts | 89° |
| 2026-05-03 20:42 | -13.39100 | -72.12654 | 23655 ft | 360 kts | 89° |
| 2026-05-03 20:42 | -13.39069 | -72.10097 | 23154 ft | 355 kts | 89° |
| 2026-05-03 20:42 | -13.39033 | -72.07564 | 22514 ft | 352 kts | 89° |
| 2026-05-03 20:43 | -13.38995 | -72.05062 | 21901 ft | 349 kts | 89° |
| 2026-05-03 20:43 | -13.38954 | -72.02581 | 21298 ft | 346 kts | 89° |
| 2026-05-03 20:43 | -13.38910 | -72.00132 | 20837 ft | 337 kts | 89° |
| 2026-05-03 20:43 | -13.38868 | -71.97787 | 20687 ft | 319 kts | 89° |
| 2026-05-03 20:44 | -13.38824 | -71.95559 | 20289 ft | 308 kts | 88° |
| 2026-05-03 20:44 | -13.38779 | -71.93406 | 19745 ft | 304 kts | 88° |
| 2026-05-03 20:44 | -13.38730 | -71.91242 | 19191 ft | 301 kts | 88° |
| 2026-05-03 20:44 | -13.38575 | -71.89114 | 18660 ft | 296 kts | 85° |
| 2026-05-03 20:45 | -13.38337 | -71.87026 | 18042 ft | 294 kts | 84° |
| 2026-05-03 20:45 | -13.38106 | -71.84936 | 17573 ft | 293 kts | 84° |
| 2026-05-03 20:45 | -13.37877 | -71.82866 | 17128 ft | 290 kts | 84° |
| 2026-05-03 20:45 | -13.37656 | -71.80812 | 16817 ft | 289 kts | 84° |
| 2026-05-03 20:46 | -13.37441 | -71.78751 | 16786 ft | 290 kts | 84° |
| 2026-05-03 20:46 | -13.37302 | -71.76678 | 16566 ft | 291 kts | 89° |
| 2026-05-03 20:46 | -13.37465 | -71.74620 | 16320 ft | 290 kts | 101° |
| 2026-05-03 20:46 | -13.38019 | -71.72635 | 16111 ft | 289 kts | 111° |
| 2026-05-03 20:47 | -13.38941 | -71.70800 | 15891 ft | 290 kts | 122° |
| 2026-05-03 20:47 | -13.40195 | -71.69185 | 15728 ft | 290 kts | 134° |
| 2026-05-03 20:47 | -13.41735 | -71.67848 | 15520 ft | 290 kts | 144° |
| 2026-05-03 20:47 | -13.43481 | -71.66854 | 15327 ft | 291 kts | 156° |
| 2026-05-03 20:48 | -13.45409 | -71.66218 | 15136 ft | 292 kts | 167° |
| 2026-05-03 20:48 | -13.47453 | -71.65983 | 14963 ft | 293 kts | 179° |
| 2026-05-03 20:48 | -13.49453 | -71.66250 | 14804 ft | 294 kts | 195° |
| 2026-05-03 20:48 | -13.51303 | -71.67132 | 14714 ft | 294 kts | 214° |
| 2026-05-03 20:49 | -13.52880 | -71.68477 | 14401 ft | 293 kts | 224° |
| 2026-05-03 20:49 | -13.54300 | -71.69949 | 14157 ft | 287 kts | 227° |
| 2026-05-03 20:49 | -13.55624 | -71.71480 | 13917 ft | 286 kts | 230° |
| 2026-05-03 20:49 | -13.56850 | -71.73042 | 13668 ft | 278 kts | 232° |
| 2026-05-03 20:50 | -13.57891 | -71.74642 | 13255 ft | 260 kts | 241° |
| 2026-05-03 20:50 | -13.58529 | -71.76279 | 12941 ft | 227 kts | 256° |
| 2026-05-03 20:50 | -13.58726 | -71.77814 | 12815 ft | 210 kts | 269° |
| 2026-05-03 20:50 | -13.58594 | -71.79275 | 12583 ft | 201 kts | 283° |
| 2026-05-03 20:51 | -13.58138 | -71.80608 | 12493 ft | 196 kts | 296° |
| 2026-05-03 20:51 | -13.57500 | -71.81835 | 12333 ft | 192 kts | 299° |
| 2026-05-03 20:51 | -13.56844 | -71.83030 | 12154 ft | 191 kts | 300° |
| 2026-05-03 20:51 | -13.56175 | -71.84202 | 12007 ft | 190 kts | 301° |
| 2026-05-03 20:52 | -13.55492 | -71.85355 | 11848 ft | 188 kts | 302° |
| 2026-05-03 20:52 | -13.54826 | -71.86516 | 11600 ft | 190 kts | 297° |
| 2026-05-03 20:52 | -13.54323 | -71.87779 | 11314 ft | 193 kts | 287° |
| 2026-05-03 20:52 | -13.54062 | -71.89137 | 11061 ft | 195 kts | 277° |
| 2026-05-03 20:53 | -13.53927 | -71.90510 | 10923 ft | 197 kts | 276° |
| 2026-05-03 20:53 | -13.53775 | -71.91941 | 10775 ft | 198 kts | 276° |
| 2026-05-03 20:53 | -13.53643 | -71.93218 | 10740 ft | 165 kts | 277° |
| 2026-05-03 20:53 | -13.53540 | -71.94197 | 10786 ft | 91 kts | 276° |
| 2026-05-03 20:54 | -13.53499 | -71.94609 | 10812 ft | 42 kts | 276° |
| 2026-05-03 20:54 | -13.53598 | -71.94916 | 10824 ft | 20 kts | 118° |
| 2026-05-03 20:54 | -13.53620 | -71.94759 | 10816 ft | 25 kts | 94° |
| 2026-05-03 20:55 | -13.53640 | -71.94596 | 10809 ft | 17 kts | 99° |
| 2026-05-03 20:55 | -13.53651 | -71.94488 | 10801 ft | 12 kts | 112° |
| 2026-05-03 20:55 | -13.53739 | -71.94459 | 10801 ft | 14 kts | 175° |
| 2026-05-03 20:55 | -13.53772 | -71.94428 | 10798 ft | 0 kts | 116° |